Date,TemperatureHighF,TemperatureAvgF,TemperatureLowF,DewpointHighF,DewpointAvgF,DewpointLowF,HumidityHigh,HumidityAvg,HumidityLow,PressureMaxIn,PressureMinIn,WindSpeedMaxMPH,WindSpeedAvgMPH,GustSpeedMaxMPH,PrecipitationSumIn
2013-5-3,680.0,40.7,67.9,42.3,41.7,41.6,29,28,28,30.08,30.08,0,0,0,0.00
2013-5-4,631.0,31.5,48.6,45.3,15.7,0.0,52,14,7,29.78,29.64,5,1,0,0.00
2013-5-5,61.8,54.3,46.8,51.8,25.3,0.0,63,29,21,29.78,29.65,6,1,0,0.00
2013-5-6,61.7,56.8,53.7,51.7,26.9,0.0,62,28,26,29.96,29.80,2,1,0,0.00
2013-5-7,60.8,55.1,51.3,44.1,7.1,-15.7,44,8,1,30.05,29.97,2,0,0,0.00
2013-5-8,58.0,51.6,48.4,31.9,7.8,0.0,26,6,26,30.16,30.06,3,1,0,0.00
2013-5-9,54.9,49.7,48.3,24.9,3.1,0.0,20,2,20,30.20,30.13,4,1,0,0.00
2013-5-10,57.0,51.2,49.3,0.0,-0.3,-2.2,3,0,3,30.19,30.15,3,1,0,0.00
2013-5-11,66.6,55.6,48.8,56.6,17.7,0.0,63,18,29,30.13,30.08,3,2,0,0.00
2013-5-12,65.6,56.5,49.0,55.6,22.7,-8.6,64,28,2,30.13,30.06,3,1,0,0.00
2013-5-13,63.6,52.9,48.2,48.5,4.9,-1.3,50,4,3,30.12,30.01,10,1,0,0.00
2013-5-14,57.1,52.0,46.9,41.2,11.3,-11.1,46,11,2,30.10,30.00,7,1,0,0.00
2013-5-15,59.8,50.6,45.5,49.4,9.5,-18.7,62,11,1,30.13,30.07,10,1,0,0.00
2013-5-16,62.9,53.9,49.2,48.1,4.8,0.0,49,4,6,30.08,30.02,6,1,0,0.00
2013-5-17,60.8,53.0,47.4,51.2,17.5,-10.6,63,20,2,30.12,30.00,10,1,0,0.00
2013-5-18,59.9,52.0,46.3,50.3,13.6,-17.8,63,16,1,30.17,30.11,10,2,0,0.00
2013-5-19,64.3,54.9,48.3,53.8,23.7,-19.7,64,28,1,30.15,30.01,7,1,0,0.00
2013-5-20,77.8,59.1,46.6,59.7,31.4,-9.6,63,32,2,30.01,29.95,7,2,0,0.00
2013-5-21,58.9,51.0,46.7,49.4,14.6,-17.8,63,18,1,30.07,29.94,15,3,0,0.00
2013-5-22,55.0,49.1,44.0,46.0,23.3,-23.3,66,34,1,30.02,29.96,11,3,0,0.00
2013-5-23,56.4,48.8,43.3,47.3,18.6,-22.1,64,24,1,30.06,29.98,15,2,0,0.00
2013-5-24,56.5,49.1,43.1,46.2,14.3,-19.8,60,16,1,30.06,29.99,10,2,0,0.00
2013-5-25,55.7,49.2,43.6,43.2,11.3,-10.9,55,13,2,30.11,30.04,10,2,0,0.00
2013-5-26,55.3,51.5,49.4,0.0,0.0,0.0,0,0,100,30.15,30.10,4,1,0,0.00